Time;durP1;ratioP1;P1;durP2;ratioP2;P2;SDS_P1;SDS_P2;PMS_P1;PMS_P2;Temp;Humidity;BMP_temperature;BMP_pressure;BME280_temperature;BME280_humidity;BME280_pressure;Samples;Min_cycle;Max_cycle;Signal;HPM_P1;HPM_P2
2022/08/02 00:00:05;;;;;;;929.95;867.40;;;;;;;22.66;54.24;101312.91;702268;28;22485;-65
2022/08/02 00:00:27;;;;;;;939.80;876.90;;;;;;;22.69;54.08;101317.91;699579;28;92350;-65
2022/08/02 00:00:48;;;;;;;916.13;853.92;;;;;;;22.68;54.13;101319.84;700574;28;44089;-65
2022/08/02 00:01:09;;;;;;;910.08;848.15;;;;;;;22.68;54.38;101322.59;703668;28;22400;-65
2022/08/02 00:01:37;;;;;;;922.35;860.03;;;;;;;22.64;54.26;101320.56;700389;28;61704;-64
2022/08/02 00:01:59;;;;;;;938.03;875.13;;;;;;;22.64;54.33;101320.56;700498;28;46492;-65
2022/08/02 00:02:20;;;;;;;942.45;879.50;;;;;;;22.63;54.33;101321.66;701310;28;46377;-65
2022/08/02 00:02:42;;;;;;;943.83;880.80;;;;;;;22.64;54.43;101317.81;701813;28;22405;-65
2022/08/02 00:03:03;;;;;;;940.92;877.88;;;;;;;22.65;54.59;101327.75;700883;28;44344;-65
2022/08/02 00:03:25;;;;;;;946.28;883.20;;;;;;;22.62;54.41;101323.56;701880;28;22402;-64
2022/08/02 00:03:47;;;;;;;938.50;875.60;;;;;;;22.63;54.26;101322.50;700842;28;46283;-65
2022/08/02 00:04:09;;;;;;;948.47;885.25;;;;;;;22.65;54.31;101325.00;701991;28;47836;-65
2022/08/02 00:04:31;;;;;;;947.95;884.85;;;;;;;22.64;54.43;101321.41;701381;28;44496;-65
2022/08/02 00:04:52;;;;;;;950.78;887.45;;;;;;;22.65;54.40;101325.84;700219;28;46375;-67
2022/08/02 00:05:14;;;;;;;959.25;895.63;;;;;;;22.65;54.43;101320.34;702103;28;22417;-64
2022/08/02 00:05:35;;;;;;;950.35;886.90;;;;;;;22.66;54.30;101326.66;701549;28;46375;-64
2022/08/02 00:05:57;;;;;;;911.15;849.05;;;;;;;22.66;54.54;101323.91;701972;28;22426;-64
2022/08/02 00:06:18;;;;;;;942.70;879.65;;;;;;;22.66;54.67;101326.66;701723;28;23501;-64
2022/08/02 00:06:39;;;;;;;952.60;889.20;;;;;;;22.66;54.57;101318.41;702089;28;45021;-65
2022/08/02 00:07:01;;;;;;;962.47;898.63;;;;;;;22.66;54.46;101321.16;700912;28;22254;-65
2022/08/02 00:07:22;;;;;;;970.13;905.97;;;;;;;22.65;54.79;101317.59;701133;28;45720;-66
2022/08/02 00:07:44;;;;;;;976.97;912.72;;;;;;;22.66;54.96;101321.16;701896;28;23464;-65
2022/08/02 00:08:05;;;;;;;957.15;893.53;;;;;;;22.64;54.60;101318.66;700866;28;22212;-64
2022/08/02 00:08:27;;;;;;;917.33;855.08;;;;;;;22.57;54.98;101311.59;702157;28;21501;-64
2022/08/02 00:08:48;;;;;;;947.03;883.80;;;;;;;22.66;54.87;101326.66;699778;28;69769;-65
2022/08/02 00:09:09;;;;;;;953.20;889.75;;;;;;;22.63;54.85;101313.38;703555;28;23465;-64
2022/08/02 00:09:30;;;;;;;954.22;890.78;;;;;;;22.65;54.80;101323.09;702291;28;23264;-64
2022/08/02 00:09:52;;;;;;;958.72;895.10;;;;;;;22.65;54.74;101320.34;700826;28;22144;-67
2022/08/02 00:10:14;;;;;;;968.40;904.47;;;;;;;22.66;54.58;101319.25;702245;28;22413;-67
2022/08/02 00:10:35;;;;;;;947.83;884.55;;;;;;;22.66;54.78;101324.78;701730;28;44380;-67
2022/08/02 00:10:56;;;;;;;948.03;884.65;;;;;;;22.66;54.88;101316.50;701489;28;46838;-68
2022/08/02 00:11:17;;;;;;;979.65;915.17;;;;;;;22.63;54.46;101313.38;701587;28;22388;-68
2022/08/02 00:11:40;;;;;;;978.65;914.33;;;;;;;22.66;54.49;101324.78;701236;28;22388;-67
2022/08/02 00:12:01;;;;;;;933.55;870.75;;;;;;;22.66;54.38;101319.25;700722;28;46296;-66
2022/08/02 00:12:22;;;;;;;952.78;889.35;;;;;;;22.64;54.69;101315.91;701933;28;22312;-68
2022/08/02 00:12:43;;;;;;;979.55;915.17;;;;;;;22.65;54.92;101320.34;702858;28;44845;-67
2022/08/02 00:13:06;;;;;;;980.22;915.85;;;;;;;22.65;54.59;101319.50;702935;28;23545;-65
2022/08/02 00:13:27;;;;;;;930.05;867.35;;;;;;;22.65;54.69;101327.75;702138;28;46353;-67
2022/08/02 00:13:48;;;;;;;936.05;873.08;;;;;;;22.64;54.95;101320.56;703050;28;23214;-67
2022/08/02 00:14:09;;;;;;;959.08;895.38;;;;;;;22.64;54.59;101321.41;702224;28;44360;-67
2022/08/02 00:14:32;;;;;;;988.13;923.38;;;;;;;22.63;54.61;101317.00;702752;28;22305;-67
2022/08/02 00:14:53;;;;;;;962.10;898.20;;;;;;;22.59;54.73;101318.56;700985;28;46348;-65
2022/08/02 00:15:14;;;;;;;963.97;900.08;;;;;;;22.62;54.66;101323.56;701854;28;22376;-67
2022/08/02 00:15:35;;;;;;;961.47;897.70;;;;;;;22.60;55.11;101328.50;700621;28;46280;-66
2022/08/02 00:15:57;;;;;;;951.55;888.20;;;;;;;22.60;54.74;101322.13;700693;28;43547;-66
2022/08/02 00:16:19;;;;;;;944.15;881.08;;;;;;;22.59;54.91;101317.72;701660;28;22327;-66
2022/08/02 00:16:41;;;;;;;935.25;872.42;;;;;;;22.59;54.80;101320.47;700545;28;44582;-66
2022/08/02 00:17:03;;;;;;;960.17;896.33;;;;;;;22.59;55.08;101314.97;700014;28;66669;-66
2022/08/02 00:17:25;;;;;;;951.17;887.65;;;;;;;22.58;54.91;101316.03;702715;28;1076;-66
2022/08/02 00:17:47;;;;;;;947.50;884.28;;;;;;;22.59;54.95;101314.97;701957;28;21332;-67
2022/08/02 00:18:08;;;;;;;957.50;893.88;;;;;;;22.59;54.92;101309.47;700973;28;46242;-66
2022/08/02 00:18:29;;;;;;;962.40;898.67;;;;;;;22.56;54.91;101319.03;701648;28;23396;-66
2022/08/02 00:18:50;;;;;;;954.63;891.13;;;;;;;22.57;55.22;101317.97;701104;28;23730;-66
2022/08/02 00:19:13;;;;;;;955.05;891.45;;;;;;;22.56;54.96;101318.22;701472;28;43837;-66
2022/08/02 00:19:34;;;;;;;915.70;853.42;;;;;;;22.58;54.74;101321.53;702040;28;46345;-66
2022/08/02 00:19:55;;;;;;;940.85;877.75;;;;;;;22.54;55.04;101310.19;701756;28;22547;-66
2022/08/02 00:20:16;;;;;;;922.65;860.22;;;;;;;22.58;55.02;101324.31;703477;28;979;-66
2022/08/02 00:20:39;;;;;;;940.80;877.80;;;;;;;22.56;54.86;101316.28;701563;28;44338;-66
2022/08/02 00:21:00;;;;;;;956.08;892.58;;;;;;;22.59;54.80;101323.22;701191;28;44189;-66
2022/08/02 00:21:21;;;;;;;964.22;900.53;;;;;;;22.59;54.95;101325.97;702197;28;23320;-66
2022/08/02 00:21:43;;;;;;;972.30;908.20;;;;;;;22.58;55.08;101321.53;700480;28;43439;-66
2022/08/02 00:22:05;;;;;;;982.17;917.80;;;;;;;22.56;55.11;101327.28;701690;28;46259;-66
2022/08/02 00:22:26;;;;;;;965.17;901.42;;;;;;;22.58;55.08;101329.81;701640;28;46411;-66
2022/08/02 00:22:47;;;;;;;956.28;892.83;;;;;;;22.59;55.17;101318.56;701811;28;22361;-66
2022/08/02 00:23:08;;;;;;;968.55;904.65;;;;;;;22.59;55.08;101315.78;703458;28;22388;-67
2022/08/02 00:23:30;;;;;;;965.45;901.65;;;;;;;22.62;54.83;101326.31;702401;28;22382;-66
2022/08/02 00:23:52;;;;;;;944.35;881.22;;;;;;;22.62;54.90;101325.50;701653;27;46906;-66
2022/08/02 00:24:13;;;;;;;935.90;873.03;;;;;;;22.61;54.92;101324.63;702550;28;46337;-66
2022/08/02 00:24:34;;;;;;;924.53;861.92;;;;;;;22.61;54.90;101327.41;702307;28;23351;-66
2022/08/02 00:24:55;;;;;;;931.80;869.05;;;;;;;22.61;55.08;101330.16;701694;28;22418;-66
2022/08/02 00:25:17;;;;;;;929.45;866.90;;;;;;;22.60;55.07;101334.00;702238;28;21549;-66
2022/08/02 00:25:39;;;;;;;923.78;861.35;;;;;;;22.61;55.17;101321.06;701993;28;46544;-67
2022/08/02 00:26:00;;;;;;;943.42;880.33;;;;;;;22.61;55.17;101334.81;700920;28;45099;-66
2022/08/02 00:26:21;;;;;;;935.30;872.45;;;;;;;22.57;54.86;101325.38;701915;28;21537;-66
2022/08/02 00:26:43;;;;;;;936.70;873.85;;;;;;;22.58;55.08;101327.06;702216;28;22216;-66
2022/08/02 00:27:07;;;;;;;934.03;871.17;;;;;;;22.57;55.04;101333.63;703501;27;45078;-67
2022/08/02 00:27:28;;;;;;;935.40;872.50;;;;;;;22.57;55.40;101322.63;700017;28;69450;-66
2022/08/02 00:27:49;;;;;;;919.10;856.88;;;;;;;22.57;55.10;101330.88;699178;28;44344;-66
2022/08/02 00:28:11;;;;;;;923.40;861.05;;;;;;;22.56;55.41;101323.72;700063;28;23310;-67
2022/08/02 00:28:33;;;;;;;929.38;866.88;;;;;;;22.56;55.36;101323.72;696509;28;44369;-67
2022/08/02 00:28:54;;;;;;;938.65;875.60;;;;;;;22.55;55.59;101328.38;696995;28;22376;-67
2022/08/02 00:29:15;;;;;;;923.78;861.25;;;;;;;22.55;55.39;101325.63;696935;28;46183;-66
2022/08/02 00:29:36;;;;;;;932.70;869.90;;;;;;;22.54;55.33;101325.84;699727;28;22484;-66
2022/08/02 00:29:59;;;;;;;925.67;863.10;;;;;;;22.56;55.65;101331.97;701620;28;21236;-66
2022/08/02 00:30:20;;;;;;;924.25;861.78;;;;;;;22.55;55.32;101322.03;699431;28;46402;-66
2022/08/02 00:30:41;;;;;;;943.08;880.00;;;;;;;22.54;55.36;101321.22;698653;28;46188;-66
2022/08/02 00:31:03;;;;;;;925.20;862.70;;;;;;;22.54;55.72;101323.97;697958;28;44354;-66
2022/08/02 00:31:27;;;;;;;942.75;879.70;;;;;;;22.53;55.49;101325.03;698914;28;23476;-66
2022/08/02 00:31:50;;;;;;;946.47;883.17;;;;;;;22.53;55.10;101322.28;696965;28;90704;-67
2022/08/02 00:32:12;;;;;;;943.33;880.15;;;;;;;22.46;55.38;101311.41;699009;28;46835;-66
2022/08/02 00:32:34;;;;;;;940.15;877.05;;;;;;;22.52;55.65;101328.84;700795;28;69707;-67
2022/08/02 00:32:56;;;;;;;939.80;876.70;;;;;;;22.51;55.17;101324.44;701215;28;21290;-66
2022/08/02 00:33:17;;;;;;;932.40;869.63;;;;;;;22.51;55.27;101318.94;700960;28;69541;-67
2022/08/02 00:33:38;;;;;;;950.72;887.33;;;;;;;22.50;55.52;101325.50;701656;28;45725;-65
2022/08/02 00:34:00;;;;;;;939.97;876.92;;;;;;;22.49;55.51;101327.44;702267;28;21535;-66
2022/08/02 00:34:22;;;;;;;946.10;882.85;;;;;;;22.48;55.61;101319.41;702898;28;22414;-67
2022/08/02 00:34:43;;;;;;;948.88;885.58;;;;;;;22.47;55.62;101328.75;702336;28;67448;-67
2022/08/02 00:35:06;;;;;;;931.78;869.00;;;;;;;22.47;55.55;101328.75;702659;28;22411;-66
2022/08/02 00:35:27;;;;;;;931.65;868.85;;;;;;;22.45;55.80;101319.91;701407;28;46174;-66
2022/08/02 00:35:48;;;;;;;929.80;867.10;;;;;;;22.44;55.62;101329.22;701985;28;22407;-66
2022/08/02 00:36:10;;;;;;;938.88;875.88;;;;;;;22.44;55.46;101326.47;701510;28;46256;-66
2022/08/02 00:36:32;;;;;;;934.13;871.35;;;;;;;22.43;55.81;101327.53;701132;28;46427;-66
2022/08/02 00:36:53;;;;;;;930.70;867.97;;;;;;;22.43;55.84;101333.06;701370;28;22366;-66
2022/08/02 00:37:15;;;;;;;931.83;868.97;;;;;;;22.41;55.59;101335.22;704023;28;22254;-66
2022/08/02 00:37:40;;;;;;;935.40;872.47;;;;;;;22.40;55.83;101328.88;700831;28;69412;-66
2022/08/02 00:38:02;;;;;;;949.08;885.63;;;;;;;22.40;55.63;101328.88;699519;28;90653;-66
2022/08/02 00:38:23;;;;;;;942.47;879.40;;;;;;;22.40;55.63;101333.53;702029;28;42352;-66
2022/08/02 00:38:46;;;;;;;919.83;857.47;;;;;;;22.34;55.93;101327.09;702158;28;22455;-66
2022/08/02 00:39:07;;;;;;;918.85;856.42;;;;;;;22.37;55.76;101334.06;700117;28;92169;-66
2022/08/02 00:39:29;;;;;;;925.15;862.53;;;;;;;22.33;56.17;101328.16;701991;28;21577;-66
2022/08/02 00:39:50;;;;;;;937.58;874.58;;;;;;;22.36;56.10;101335.13;702007;28;21306;-66
2022/08/02 00:40:12;;;;;;;942.63;879.53;;;;;;;22.38;56.22;101332.94;702720;28;22327;-66
2022/08/02 00:40:38;;;;;;;943.65;880.45;;;;;;;22.39;56.13;101331.88;701233;28;69384;-66
2022/08/02 00:40:59;;;;;;;926.80;864.10;;;;;;;22.38;55.87;101324.69;698942;28;115146;-66
2022/08/02 00:41:21;;;;;;;933.15;870.33;;;;;;;22.41;55.76;101332.47;701445;28;46309;-66
2022/08/02 00:41:53;;;;;;;923.40;860.85;;;;;;;22.39;55.76;101326.38;699309;28;80492;-66
2022/08/02 00:42:14;;;;;;;951.33;887.83;;;;;;;22.41;55.89;101324.22;700991;28;69283;-66
2022/08/02 00:42:36;;;;;;;952.10;888.67;;;;;;;22.40;55.52;101331.63;702637;28;22381;-66
2022/08/02 00:43:03;;;;;;;934.33;871.47;;;;;;;22.42;56.02;101331.41;701208;28;46394;-66
2022/08/02 00:43:24;;;;;;;943.33;880.20;;;;;;;22.40;55.92;101325.28;698637;28;138037;-66
2022/08/02 00:43:46;;;;;;;944.95;881.75;;;;;;;22.40;55.92;101331.63;703061;28;21514;-66
2022/08/02 00:44:07;;;;;;;939.55;876.53;;;;;;;22.40;55.96;101325.28;701599;28;45238;-68
2022/08/02 00:44:30;;;;;;;944.88;881.70;;;;;;;22.40;55.67;101326.13;702768;28;21609;-66
2022/08/02 00:44:51;;;;;;;945.67;882.30;;;;;;;22.37;55.77;101326.63;700409;28;69413;-66
2022/08/02 00:45:12;;;;;;;944.33;881.13;;;;;;;22.38;55.87;101324.69;702509;27;22478;-66
2022/08/02 00:45:35;;;;;;;933.28;870.53;;;;;;;22.36;56.04;101324.09;702787;28;23557;-66
2022/08/02 00:45:57;;;;;;;936.50;873.60;;;;;;;22.38;56.09;101321.94;700439;28;69388;-66
2022/08/02 00:46:19;;;;;;;934.67;871.88;;;;;;;22.36;55.89;101327.69;702003;28;44390;-66
2022/08/02 00:46:40;;;;;;;945.53;882.35;;;;;;;22.37;55.81;101323.03;701755;28;44195;-66
2022/08/02 00:47:03;;;;;;;943.95;880.67;;;;;;;22.36;56.01;101327.69;700758;28;22483;-66
2022/08/02 00:47:25;;;;;;;952.80;889.15;;;;;;;22.34;55.89;101321.59;700566;28;70134;-66
2022/08/02 00:47:47;;;;;;;948.38;884.95;;;;;;;22.40;55.86;101325.28;701186;28;44399;-66
2022/08/02 00:48:10;;;;;;;947.10;883.72;;;;;;;22.40;55.97;101325.28;702063;28;22470;-66
2022/08/02 00:48:31;;;;;;;942.85;879.65;;;;;;;22.41;55.82;101326.97;699855;28;92202;-66
2022/08/02 00:48:54;;;;;;;943.80;880.58;;;;;;;22.42;55.95;101334.16;701337;28;24769;-66
2022/08/02 00:49:16;;;;;;;936.45;873.45;;;;;;;22.41;55.71;101325.03;701599;28;69460;-66
2022/08/02 00:49:37;;;;;;;939.42;876.35;;;;;;;22.44;55.96;101327.31;702533;28;22408;-66
2022/08/02 00:49:58;;;;;;;944.30;881.08;;;;;;;22.46;55.82;101324.31;701085;28;45068;-67
2022/08/02 00:50:19;;;;;;;935.63;872.72;;;;;;;22.47;55.86;101326.00;702680;28;22256;-67
2022/08/02 00:50:43;;;;;;;930.65;867.88;;;;;;;22.48;55.92;101325.75;702737;28;21517;-67
2022/08/02 00:51:06;;;;;;;942.38;879.17;;;;;;;22.48;55.81;101322.19;703009;28;41940;-67
2022/08/02 00:51:28;;;;;;;936.38;873.45;;;;;;;22.50;55.76;101325.50;703446;28;4586;-66
2022/08/02 00:51:51;;;;;;;938.38;875.42;;;;;;;22.52;55.61;101331.59;702485;28;46370;-67
2022/08/02 00:52:14;;;;;;;939.30;876.28;;;;;;;22.51;55.77;101329.94;704204;28;1713;-66
2022/08/02 00:52:35;;;;;;;935.72;872.83;;;;;;;22.52;55.74;101326.09;701676;28;46530;-66
2022/08/02 00:52:56;;;;;;;931.08;868.38;;;;;;;22.51;55.35;101327.19;701294;28;24403;-66
2022/08/02 00:53:18;;;;;;;938.63;875.65;;;;;;;22.53;55.79;101327.78;701881;28;46438;-67
2022/08/02 00:53:39;;;;;;;931.88;869.20;;;;;;;22.54;55.30;101329.47;702340;28;23516;-67
2022/08/02 00:54:01;;;;;;;937.65;874.60;;;;;;;22.57;55.54;101328.97;701015;28;46333;-66
2022/08/02 00:54:23;;;;;;;931.65;868.90;;;;;;;22.58;55.48;101329.81;703547;28;44375;-66
2022/08/02 00:54:44;;;;;;;920.08;857.67;;;;;;;22.59;55.51;101329.56;702311;28;21267;-66
2022/08/02 00:55:06;;;;;;;915.38;853.05;;;;;;;22.59;55.51;101325.97;702315;28;23288;-66
2022/08/02 00:55:27;;;;;;;920.58;858.22;;;;;;;22.61;55.13;101335.66;701370;28;44318;-66
2022/08/02 00:55:49;;;;;;;927.20;864.58;;;;;;;22.61;55.22;101324.63;701088;28;47008;-66
2022/08/02 00:56:11;;;;;;;933.05;870.22;;;;;;;22.62;55.40;101328.25;701553;28;45336;-66
2022/08/02 00:56:32;;;;;;;939.67;876.70;;;;;;;22.63;55.16;101330.75;702064;28;23414;-66
2022/08/02 00:56:53;;;;;;;953.17;889.65;;;;;;;22.61;55.18;101327.41;700692;27;46329;-66
2022/08/02 00:57:16;;;;;;;947.08;883.67;;;;;;;22.65;55.28;101328.59;703042;28;23498;-66
2022/08/02 00:57:37;;;;;;;939.45;876.38;;;;;;;22.63;55.28;101321.66;701928;28;47508;-66
2022/08/02 00:57:58;;;;;;;938.88;875.88;;;;;;;22.67;55.27;101328.34;701995;28;22408;-66
2022/08/02 00:58:19;;;;;;;941.35;878.30;;;;;;;22.66;55.26;101327.53;704822;27;22414;-66
2022/08/02 00:58:42;;;;;;;938.72;875.75;;;;;;;22.67;54.83;101331.09;704448;27;45071;-66
2022/08/02 00:59:03;;;;;;;937.45;874.47;;;;;;;22.67;54.88;101320.09;704246;27;45257;-66
2022/08/02 00:59:25;;;;;;;935.70;872.83;;;;;;;22.64;54.88;101326.09;704246;27;46457;-66
2022/08/02 00:59:46;;;;;;;922.17;859.70;;;;;;;22.66;55.19;101326.66;704452;27;23444;-67
2022/08/02 01:00:09;;;;;;;926.03;863.40;;;;;;;22.62;55.12;101326.31;705107;27;22400;-66
2022/08/02 01:00:32;;;;;;;923.92;861.50;;;;;;;22.64;55.04;101326.09;699513;28;93004;-66
2022/08/02 01:00:56;;;;;;;915.75;853.45;;;;;;;22.64;55.24;101323.31;701325;28;46217;-66
2022/08/02 01:01:17;;;;;;;911.90;849.80;;;;;;;22.60;55.19;101325.75;699744;28;90284;-66
2022/08/02 01:01:40;;;;;;;931.25;868.45;;;;;;;22.64;55.07;101326.91;701716;28;22382;-66
2022/08/02 01:02:02;;;;;;;936.55;873.65;;;;;;;22.63;55.22;101322.50;700500;28;69286;-66
2022/08/02 01:02:23;;;;;;;938.65;875.63;;;;;;;22.63;55.42;101327.16;701128;28;47069;-66
2022/08/02 01:02:45;;;;;;;941.28;878.28;;;;;;;22.62;55.37;101331.84;701393;28;44367;-66
2022/08/02 01:03:09;;;;;;;940.78;877.78;;;;;;;22.62;55.54;101331.00;703032;28;21343;-66
2022/08/02 01:03:30;;;;;;;947.15;883.95;;;;;;;22.63;55.49;101335.41;699839;28;92928;-67
2022/08/02 01:03:52;;;;;;;944.83;881.67;;;;;;;22.59;55.45;101329.56;701837;28;22406;-67
2022/08/02 01:04:13;;;;;;;942.83;879.72;;;;;;;22.61;55.13;101332.06;701555;28;45196;-66
2022/08/02 01:04:35;;;;;;;931.88;869.13;;;;;;;22.59;55.49;101332.31;702544;28;21270;-67
2022/08/02 01:04:56;;;;;;;932.53;869.63;;;;;;;22.59;55.46;101337.81;700937;28;45257;-65
2022/08/02 01:05:18;;;;;;;950.60;887.15;;;;;;;22.59;55.45;101325.97;702469;28;21271;-67
2022/08/02 01:05:39;;;;;;;953.80;890.30;;;;;;;22.55;55.44;101325.63;702422;28;46383;-67
2022/08/02 01:06:02;;;;;;;926.20;863.67;;;;;;;22.58;55.36;101330.63;701083;28;46171;-67
2022/08/02 01:06:23;;;;;;;931.95;869.17;;;;;;;22.59;55.44;101328.72;700579;28;44399;-66
2022/08/02 01:06:44;;;;;;;929.40;866.70;;;;;;;22.59;55.52;101335.06;702026;28;22532;-67
2022/08/02 01:07:05;;;;;;;926.03;863.33;;;;;;;22.58;55.70;101336.13;702069;27;22396;-66
2022/08/02 01:07:27;;;;;;;933.03;870.15;;;;;;;22.58;55.39;101338.06;701973;28;22172;-67
2022/08/02 01:07:49;;;;;;;929.30;866.60;;;;;;;22.57;55.69;101333.63;701254;28;46272;-67
2022/08/02 01:08:10;;;;;;;935.30;872.47;;;;;;;22.57;55.54;101340.00;700920;28;46765;-67
2022/08/02 01:08:31;;;;;;;935.65;872.80;;;;;;;22.53;55.31;101330.53;702462;28;23491;-66
2022/08/02 01:08:53;;;;;;;938.28;875.28;;;;;;;22.56;55.82;101341.06;701547;28;22265;-65
2022/08/02 01:09:15;;;;;;;937.97;875.08;;;;;;;22.57;55.57;101333.63;701666;28;46174;-64
2022/08/02 01:09:36;;;;;;;934.38;871.53;;;;;;;22.57;55.46;101342.75;701536;28;45051;-67
2022/08/02 01:09:57;;;;;;;932.35;869.47;;;;;;;22.57;55.53;101337.25;701538;28;21508;-67
2022/08/02 01:10:18;;;;;;;924.08;861.45;;;;;;;22.57;55.51;101339.13;701712;28;23675;-66
2022/08/02 01:10:40;;;;;;;935.55;872.60;;;;;;;22.57;55.72;101339.13;702479;28;22203;-67
2022/08/02 01:11:02;;;;;;;929.65;866.95;;;;;;;22.58;55.40;101338.88;701736;28;21036;-67
2022/08/02 01:11:23;;;;;;;930.78;868.13;;;;;;;22.59;55.53;101342.50;700207;28;69400;-67
2022/08/02 01:11:44;;;;;;;929.45;866.75;;;;;;;22.57;55.47;101334.47;702256;28;22363;-67
2022/08/02 01:12:11;;;;;;;933.53;870.65;;;;;;;22.59;55.43;101345.25;702925;28;21726;-67
2022/08/02 01:12:32;;;;;;;954.83;891.25;;;;;;;22.58;55.76;101335.31;698151;28;136336;-67
2022/08/02 01:12:53;;;;;;;948.92;885.50;;;;;;;22.58;55.42;101336.13;701608;28;21403;-67
2022/08/02 01:13:15;;;;;;;918.03;855.65;;;;;;;22.57;55.15;101333.63;702452;28;23490;-67
2022/08/02 01:13:37;;;;;;;913.03;850.90;;;;;;;22.60;55.53;101335.91;701804;28;46518;-67
2022/08/02 01:14:03;;;;;;;921.63;859.10;;;;;;;22.59;55.48;101337.81;701255;28;46328;-67
2022/08/02 01:14:24;;;;;;;926.53;863.95;;;;;;;22.60;55.09;101334.00;699092;28;113569;-67
2022/08/02 01:14:47;;;;;;;921.63;859.30;;;;;;;22.63;55.26;101338.16;702123;28;44398;-67
2022/08/02 01:15:09;;;;;;;933.22;870.33;;;;;;;22.63;55.47;101336.25;700351;28;69261;-68
2022/08/02 01:15:33;;;;;;;934.63;871.75;;;;;;;22.63;55.16;101336.25;702222;28;45223;-67
2022/08/02 01:15:59;;;;;;;943.72;880.45;;;;;;;22.64;55.15;101335.16;699457;28;90371;-66
2022/08/02 01:16:25;;;;;;;933.65;870.88;;;;;;;22.65;55.12;101339.59;698407;28;136245;-67
2022/08/02 01:17:00;;;;;;;928.78;866.08;;;;;;;22.66;55.27;101340.44;697075;28;157895;-67
2022/08/02 01:17:29;;;;;;;928.10;865.35;;;;;;;22.64;55.40;101332.41;699900;28;137516;-67
2022/08/02 01:17:53;;;;;;;916.10;853.83;;;;;;;22.66;55.18;101340.44;696570;28;161009;-67
2022/08/02 01:18:21;;;;;;;878.53;817.38;;;;;;;22.64;55.04;101334.34;699153;28;113376;-68
2022/08/02 01:18:45;;;;;;;920.10;857.70;;;;;;;22.68;55.01;101346.56;698046;28;138082;-67
2022/08/02 01:19:17;;;;;;;931.80;869.03;;;;;;;22.67;54.74;101345.69;700057;28;92280;-66
2022/08/02 01:19:45;;;;;;;928.72;866.13;;;;;;;22.66;55.21;101338.53;699914;28;135502;-67
2022/08/02 01:20:12;;;;;;;946.85;883.63;;;;;;;22.65;55.21;101336.84;698001;28;160992;-67
2022/08/02 01:20:49;;;;;;;962.22;898.53;;;;;;;22.66;55.14;101338.53;698530;28;136384;-66
2022/08/02 01:21:27;;;;;;;952.20;888.78;;;;;;;22.67;54.93;101340.19;698273;28;138386;-67
2022/08/02 01:22:02;;;;;;;921.28;858.88;;;;;;;22.70;54.84;101341.63;695549;28;180602;-67
2022/08/02 01:22:59;;;;;;;926.03;863.53;;;;;;;22.70;54.89;101338.88;698976;28;137534;-67
2022/08/02 01:23:39;;;;;;;929.47;866.78;;;;;;;22.68;54.84;101341.88;689458;28;138428;-67
2022/08/02 01:24:20;;;;;;;939.97;876.97;;;;;;;22.68;55.06;101347.38;688304;28;135740;-67
2022/08/02 01:25:11;;;;;;;931.20;868.50;;;;;;;22.67;55.21;101334.69;698447;28;160606;-67
2022/08/02 01:25:46;;;;;;;935.47;872.63;;;;;;;22.67;55.29;101342.94;697458;28;160587;-67
2022/08/02 01:26:34;;;;;;;929.78;867.08;;;;;;;22.68;55.03;101336.38;701276;27;138689;-64
2022/08/02 01:27:02;;;;;;;942.95;879.78;;;;;;;22.70;55.09;101338.03;700348;27;88077;-66
2022/08/02 01:27:39;;;;;;;921.40;858.95;;;;;;;22.70;55.17;101344.38;700349;27;137973;-66
2022/08/02 01:28:25;;;;;;;935.10;872.22;;;;;;;22.68;55.24;101341.88;699549;27;137749;-67
2022/08/02 01:28:49;;;;;;;933.17;870.33;;;;;;;22.66;54.85;101341.28;698170;28;137461;-67
2022/08/02 01:29:14;;;;;;;917.30;854.97;;;;;;;22.65;55.23;101336.84;698934;28;113349;-66
2022/08/02 01:29:38;;;;;;;921.85;859.45;;;;;;;22.65;54.92;101336.84;699434;28;115266;-66
2022/08/02 01:30:00;;;;;;;921.53;859.10;;;;;;;22.65;54.65;101338.78;699443;28;92628;-67
2022/08/02 01:30:22;;;;;;;936.67;873.80;;;;;;;22.64;54.85;101342.59;703120;28;47755;-67
2022/08/02 01:30:46;;;;;;;929.90;867.20;;;;;;;22.62;55.06;101340.09;701238;28;46380;-67
2022/08/02 01:31:13;;;;;;;929.15;866.47;;;;;;;22.62;55.05;101342.00;699492;28;90970;-65
2022/08/02 01:31:37;;;;;;;943.15;879.95;;;;;;;22.62;54.82;101339.25;697641;28;138795;-66
2022/08/02 01:32:04;;;;;;;931.33;868.42;;;;;;;22.63;55.28;101343.66;699387;28;93000;-66
2022/08/02 01:32:29;;;;;;;941.92;878.92;;;;;;;22.61;55.26;101335.66;698077;28;139093;-66
2022/08/02 01:32:54;;;;;;;952.22;888.53;;;;;;;22.63;55.11;101338.16;698535;28;115081;-67
2022/08/02 01:33:17;;;;;;;956.97;893.25;;;;;;;22.64;55.00;101346.19;700581;28;114661;-66
2022/08/02 01:33:43;;;;;;;942.85;879.78;;;;;;;22.63;54.95;101328.00;699943;28;69433;-66
2022/08/02 01:34:12;;;;;;;945.88;882.63;;;;;;;22.64;55.08;101340.66;698305;28;137162;-66
2022/08/02 01:34:35;;;;;;;929.80;867.10;;;;;;;22.67;54.80;101342.13;698503;28;138190;-66
2022/08/02 01:34:59;;;;;;;936.72;873.80;;;;;;;22.67;55.00;101337.44;698998;28;92304;-66
2022/08/02 01:35:23;;;;;;;946.88;883.60;;;;;;;22.65;54.70;101334.09;700575;28;71062;-66
2022/08/02 01:35:52;;;;;;;932.97;870.13;;;;;;;22.67;54.70;101342.94;698651;28;115024;-66
2022/08/02 01:36:17;;;;;;;939.83;876.72;;;;;;;22.66;54.63;101338.53;699242;28;138509;-66
2022/08/02 01:36:40;;;;;;;926.08;863.50;;;;;;;22.67;54.57;101340.19;698681;27;115242;-66
2022/08/02 01:37:07;;;;;;;929.25;866.45;;;;;;;22.66;54.96;101341.28;700157;28;70721;-67
2022/08/02 01:37:32;;;;;;;929.38;866.63;;;;;;;22.64;54.96;101337.91;697769;28;136357;-66
2022/08/02 01:37:57;;;;;;;911.88;849.75;;;;;;;22.65;55.18;101345.09;697294;28;136179;-67
2022/08/02 01:38:23;;;;;;;923.70;861.28;;;;;;;22.65;54.77;101347.03;700369;28;90722;-66
2022/08/02 01:38:46;;;;;;;930.22;867.60;;;;;;;22.65;54.73;101341.53;698916;28;138123;-66
2022/08/02 01:39:13;;;;;;;938.03;875.13;;;;;;;22.64;55.25;101340.66;700276;28;73338;-66
2022/08/02 01:39:35;;;;;;;948.63;885.22;;;;;;;22.64;54.76;101335.16;698463;28;138101;-66
2022/08/02 01:40:00;;;;;;;925.80;863.13;;;;;;;22.64;55.02;101343.44;700795;28;45206;-66
2022/08/02 01:40:25;;;;;;;931.17;868.38;;;;;;;22.63;55.02;101343.66;700437;28;83020;-66
2022/08/02 01:40:48;;;;;;;933.50;870.65;;;;;;;22.62;55.29;101344.78;698979;28;113566;-66
2022/08/02 01:41:16;;;;;;;922.00;859.55;;;;;;;22.62;55.24;101347.53;700832;28;69709;-66
2022/08/02 01:41:39;;;;;;;928.60;866.00;;;;;;;22.61;55.35;101343.91;698504;28;138069;-66
2022/08/02 01:42:01;;;;;;;933.17;870.38;;;;;;;22.59;55.36;101340.56;700115;28;69430;-66
2022/08/02 01:42:24;;;;;;;924.35;861.85;;;;;;;22.59;55.34;101339.75;701602;27;46248;-66
2022/08/02 01:42:48;;;;;;;931.33;868.47;;;;;;;22.60;55.20;101349.66;699252;28;91288;-66
2022/08/02 01:43:12;;;;;;;934.00;871.20;;;;;;;22.59;55.48;101346.06;700099;28;90673;-66
2022/08/02 01:43:35;;;;;;;933.88;871.05;;;;;;;22.59;55.57;101342.50;701100;28;69565;-66
2022/08/02 01:43:58;;;;;;;940.90;877.92;;;;;;;22.59;55.48;101354.34;700218;28;69433;-66
2022/08/02 01:44:21;;;;;;;945.92;882.83;;;;;;;22.58;55.42;101346.31;701729;28;68301;-66